createdAt,value
2016-07-08T06:05:10.721Z,16
2016-07-08T06:06:10.715Z,12
2016-07-08T06:07:10.504Z,12
2016-07-08T06:08:10.487Z,16
2016-07-08T06:09:10.492Z,16
2016-07-08T06:10:10.672Z,16
2016-07-08T06:11:10.455Z,16
2016-07-08T06:12:10.460Z,16
2016-07-08T06:13:10.450Z,12
2016-07-08T06:14:10.444Z,12
2016-07-08T06:15:10.437Z,16
2016-07-08T06:16:10.433Z,16
2016-07-08T06:17:10.423Z,16
2016-07-08T06:18:10.416Z,12
2016-07-08T06:19:10.417Z,16
2016-07-08T06:20:10.410Z,16
2016-07-08T06:21:10.398Z,16
2016-07-08T06:22:10.409Z,12
2016-07-08T06:23:10.399Z,12
2016-07-08T06:24:10.403Z,16
2016-07-08T06:25:10.394Z,16
2016-07-08T06:26:10.389Z,16
2016-07-08T06:27:10.386Z,20
2016-07-08T06:28:10.378Z,16
2016-07-08T06:29:10.390Z,16
2016-07-08T06:30:10.375Z,16
2016-07-08T06:31:12.218Z,20
2016-07-08T06:32:10.580Z,16
2016-07-08T06:33:10.366Z,16
2016-07-08T06:34:10.378Z,16
2016-07-08T06:35:10.375Z,20
2016-07-08T06:36:10.575Z,24
2016-07-08T06:37:10.362Z,20
2016-07-08T06:38:10.366Z,24
2016-07-08T06:39:10.360Z,24
2016-07-08T06:40:10.363Z,24
2016-07-08T06:41:10.358Z,24
2016-07-08T06:42:10.356Z,24
2016-07-08T06:43:10.349Z,20
2016-07-08T06:44:10.366Z,20
2016-07-08T06:45:10.353Z,20
2016-07-08T06:46:10.355Z,16
2016-07-08T06:47:10.356Z,20
2016-07-08T06:48:10.346Z,16
2016-07-08T06:49:10.349Z,16
2016-07-08T06:50:10.350Z,16
2016-07-08T06:51:10.349Z,20
2016-07-08T06:52:10.347Z,16
2016-07-08T06:53:10.556Z,16
2016-07-08T06:54:10.350Z,20
2016-07-08T06:55:10.559Z,20
2016-07-08T06:56:10.339Z,16
2016-07-08T06:57:10.364Z,20
2016-07-08T06:58:10.370Z,20
2016-07-08T06:59:10.387Z,16
2016-07-08T07:00:10.692Z,20
2016-07-08T07:01:10.636Z,20
2016-07-08T07:02:10.361Z,20
2016-07-08T07:03:10.349Z,16
2016-07-08T07:04:10.344Z,20
2016-07-08T07:05:10.346Z,16
2016-07-08T07:06:11.857Z,20
2016-07-08T07:07:10.399Z,20
2016-07-08T07:08:11.171Z,20
2016-07-08T07:09:10.614Z,20
2016-07-08T07:10:10.770Z,20
2016-07-08T07:11:10.482Z,20
2016-07-08T07:12:14.751Z,20
2016-07-08T07:13:11.206Z,20
2016-07-08T07:14:10.355Z,20
2016-07-08T07:15:12.257Z,20
2016-07-08T07:16:10.424Z,16
2016-07-08T07:17:10.351Z,20
2016-07-08T07:18:10.374Z,20
2016-07-08T07:19:10.414Z,20
2016-07-08T07:20:10.551Z,20
2016-07-08T07:21:10.471Z,20
2016-07-08T07:22:10.397Z,20
2016-07-08T07:23:10.407Z,20
2016-07-08T07:24:10.532Z,20
2016-07-08T07:25:10.359Z,20
2016-07-08T07:26:10.496Z,20
2016-07-08T07:27:10.416Z,20
2016-07-08T07:28:10.369Z,20
2016-07-08T07:29:10.656Z,16
2016-07-08T07:30:10.375Z,16
2016-07-08T07:31:10.353Z,20
2016-07-08T07:32:10.566Z,20
2016-07-08T07:33:10.382Z,16
2016-07-08T07:34:10.374Z,16
2016-07-08T07:35:10.367Z,16
2016-07-08T07:36:10.375Z,16
2016-07-08T07:37:10.369Z,20
2016-07-08T07:38:10.579Z,20
2016-07-08T07:39:10.804Z,16
2016-07-08T07:40:10.372Z,16
2016-07-08T07:41:10.375Z,20
2016-07-08T07:42:10.751Z,20
2016-07-08T07:43:10.377Z,16
2016-07-08T07:44:10.394Z,16
2016-07-08T07:45:10.405Z,16
2016-07-08T07:46:10.440Z,16
2016-07-08T07:47:10.382Z,16
2016-07-08T07:48:10.412Z,16
2016-07-08T07:49:10.387Z,16
2016-07-08T07:50:10.384Z,20
2016-07-08T07:51:10.388Z,16
2016-07-08T07:52:10.386Z,20
2016-07-08T07:53:10.597Z,20
2016-07-08T07:54:10.411Z,20
2016-07-08T07:55:10.500Z,20
2016-07-08T07:56:10.594Z,20
2016-07-08T07:57:10.401Z,16
2016-07-08T07:58:10.389Z,20
2016-07-08T07:59:10.391Z,16
2016-07-08T08:00:10.399Z,20
2016-07-08T08:01:10.419Z,20
2016-07-08T08:02:10.679Z,16
2016-07-08T08:03:10.396Z,20
2016-07-08T08:04:10.410Z,20
2016-07-08T08:05:10.392Z,20
2016-07-08T08:06:10.893Z,20
2016-07-08T08:07:10.405Z,20
2016-07-08T08:08:10.428Z,20
2016-07-08T08:09:10.415Z,24
2016-07-08T08:10:10.414Z,24
2016-07-08T08:11:10.783Z,20
2016-07-08T08:12:10.416Z,24
2016-07-08T08:13:10.616Z,20
2016-07-08T08:14:10.412Z,24
2016-07-08T08:15:10.711Z,24
2016-07-08T08:16:10.426Z,24
2016-07-08T08:17:10.618Z,20
2016-07-08T08:18:10.431Z,20
2016-07-08T08:19:10.434Z,20
2016-07-08T08:20:10.426Z,20
2016-07-08T08:21:10.438Z,20
2016-07-08T08:22:10.458Z,20
2016-07-08T08:23:10.490Z,20
2016-07-08T08:24:10.440Z,20
2016-07-08T08:25:10.484Z,20
2016-07-08T08:26:10.446Z,24
2016-07-08T08:27:10.845Z,24
2016-07-08T08:28:10.446Z,24
2016-07-08T08:29:10.446Z,24
2016-07-08T08:30:10.448Z,24
2016-07-08T08:31:10.518Z,20
2016-07-08T08:32:10.449Z,20
2016-07-08T08:33:10.659Z,20
2016-07-08T08:34:10.452Z,20
2016-07-08T08:35:10.457Z,24
2016-07-08T08:36:10.459Z,20
2016-07-08T08:37:10.470Z,20
2016-07-08T08:38:10.465Z,20
2016-07-08T08:39:10.460Z,20
2016-07-08T08:40:10.464Z,20
2016-07-08T08:41:10.473Z,20
2016-07-08T08:42:10.471Z,20
2016-07-08T08:43:10.478Z,20
2016-07-08T08:44:10.482Z,20
2016-07-08T08:45:10.492Z,20
2016-07-08T08:46:10.754Z,20
2016-07-08T08:47:10.494Z,20
2016-07-08T08:48:10.510Z,24
2016-07-08T08:49:10.479Z,20
2016-07-08T08:50:10.527Z,20
2016-07-08T08:51:10.487Z,20
2016-07-08T08:52:10.593Z,20
2016-07-08T08:53:10.519Z,24
2016-07-08T08:54:10.493Z,20
2016-07-08T08:55:10.495Z,24
2016-07-08T08:56:10.693Z,20
2016-07-08T08:57:10.512Z,20
2016-07-08T08:58:10.526Z,20
2016-07-08T08:59:10.512Z,16
2016-07-08T09:00:10.508Z,16
2016-07-08T09:01:10.524Z,16
2016-07-08T09:02:10.510Z,16
2016-07-08T09:03:10.504Z,16
2016-07-08T09:04:10.517Z,16
2016-07-08T09:05:10.527Z,12
2016-07-08T09:06:10.536Z,12
2016-07-08T09:07:10.542Z,16
2016-07-08T09:08:10.534Z,16
2016-07-08T09:09:10.898Z,12
2016-07-08T09:10:10.567Z,16
2016-07-08T09:11:10.529Z,16
2016-07-08T09:12:10.551Z,16
2016-07-08T09:13:10.542Z,16
2016-07-08T09:14:10.538Z,16
2016-07-08T09:15:10.530Z,20
2016-07-08T09:16:10.740Z,20
2016-07-08T09:17:10.547Z,16
2016-07-08T09:18:10.548Z,16
2016-07-08T09:19:10.548Z,20
2016-07-08T09:20:10.921Z,16
2016-07-08T09:21:10.559Z,20
2016-07-08T09:22:10.559Z,20
2016-07-08T09:23:10.585Z,20
2016-07-08T09:24:16.286Z,20
2016-07-08T09:25:10.568Z,20
2016-07-08T09:26:10.605Z,20
2016-07-08T09:27:10.573Z,20
2016-07-08T09:28:10.566Z,20
2016-07-08T09:29:10.580Z,16
2016-07-08T09:30:10.632Z,20
2016-07-08T09:31:10.801Z,20
2016-07-08T09:32:10.582Z,20
2016-07-08T09:33:10.668Z,20
2016-07-08T09:34:10.587Z,20
2016-07-08T09:35:10.792Z,20
2016-07-08T09:36:10.595Z,20
2016-07-08T09:37:10.588Z,20
2016-07-08T09:38:10.615Z,20
2016-07-08T09:39:10.604Z,24
2016-07-08T09:40:10.601Z,24
2016-07-08T09:41:10.609Z,20
2016-07-08T09:42:10.605Z,24
2016-07-08T09:43:10.801Z,24
2016-07-08T09:44:10.627Z,20
2016-07-08T09:45:10.610Z,24
2016-07-08T09:46:10.625Z,24
2016-07-08T09:47:10.698Z,20
2016-07-08T09:48:10.629Z,20
2016-07-08T09:49:10.619Z,24
2016-07-08T09:50:10.620Z,24
2016-07-08T09:51:10.616Z,24
2016-07-08T09:52:10.866Z,24
2016-07-08T09:53:10.629Z,24
2016-07-08T09:54:10.638Z,24
2016-07-08T09:55:10.836Z,20
2016-07-08T09:56:10.715Z,20
2016-07-08T09:57:10.840Z,20
2016-07-08T09:58:10.645Z,20
2016-07-08T09:59:10.646Z,24
2016-07-08T10:00:10.646Z,24
2016-07-08T10:01:10.654Z,24
2016-07-08T10:02:10.651Z,20
2016-07-08T10:03:10.743Z,24
2016-07-08T10:04:11.100Z,20
2016-07-08T10:05:10.675Z,20
2016-07-08T10:06:10.859Z,20
2016-07-08T10:07:10.670Z,20
2016-07-08T10:08:10.670Z,20
2016-07-08T10:09:10.670Z,20
2016-07-08T10:10:10.700Z,20
2016-07-08T10:11:10.691Z,20
2016-07-08T10:12:10.772Z,20
2016-07-08T10:13:10.682Z,20
2016-07-08T10:14:10.947Z,20
2016-07-08T10:15:11.325Z,20
2016-07-08T10:16:10.755Z,20
2016-07-08T10:17:11.372Z,20
2016-07-08T10:18:10.913Z,20
2016-07-08T10:19:10.733Z,20
2016-07-08T10:20:10.720Z,20
2016-07-08T10:21:10.800Z,20
2016-07-08T10:22:10.714Z,20
2016-07-08T10:23:10.918Z,20
2016-07-08T10:24:10.711Z,20
2016-07-08T10:25:11.172Z,20
2016-07-08T10:26:10.966Z,16
2016-07-08T10:27:10.731Z,20
2016-07-08T10:28:10.736Z,20
2016-07-08T10:29:11.654Z,20
2016-07-08T10:30:12.533Z,20
2016-07-08T10:31:10.729Z,20
2016-07-08T10:32:10.730Z,24
2016-07-08T10:33:10.739Z,20
2016-07-08T10:34:10.747Z,20
2016-07-08T10:35:10.742Z,20
2016-07-08T10:36:11.010Z,20
2016-07-08T10:37:10.751Z,24
2016-07-08T10:38:10.745Z,24
2016-07-08T10:39:10.755Z,20
2016-07-08T10:40:11.276Z,24
2016-07-08T10:41:10.767Z,20
2016-07-08T10:42:10.957Z,24
2016-07-08T10:43:10.762Z,20
2016-07-08T10:44:10.816Z,20
2016-07-08T10:45:10.780Z,20
2016-07-08T10:46:10.778Z,20
2016-07-08T10:47:10.780Z,20
2016-07-08T10:48:10.797Z,20
2016-07-08T10:49:10.784Z,16
2016-07-08T10:50:10.794Z,20
2016-07-08T10:51:10.794Z,16
2016-07-08T10:52:10.997Z,20
2016-07-08T10:53:10.800Z,20
2016-07-08T10:54:10.802Z,24
2016-07-08T10:55:10.794Z,20
2016-07-08T10:56:10.816Z,20
2016-07-08T10:57:10.808Z,20
2016-07-08T10:58:10.808Z,20
2016-07-08T10:59:10.834Z,20
2016-07-08T11:00:10.808Z,20
2016-07-08T11:01:10.822Z,20
2016-07-08T11:02:10.824Z,16
2016-07-08T11:03:10.835Z,20
2016-07-08T11:04:10.827Z,20
2016-07-08T11:05:10.932Z,16
2016-07-08T11:06:10.932Z,20
2016-07-08T11:07:10.847Z,20
2016-07-08T11:08:10.838Z,20
2016-07-08T11:09:10.844Z,20
2016-07-08T11:10:10.850Z,16
2016-07-08T11:11:10.859Z,16
2016-07-08T11:12:10.857Z,20
2016-07-08T11:13:11.113Z,16
2016-07-08T11:14:10.868Z,20
2016-07-08T11:15:10.870Z,20
2016-07-08T11:16:10.875Z,16
2016-07-08T11:17:10.867Z,20
2016-07-08T11:18:10.881Z,16
2016-07-08T11:19:11.075Z,16
2016-07-08T11:20:10.884Z,20
2016-07-08T11:21:10.888Z,20
2016-07-08T11:22:10.889Z,20
2016-07-08T11:23:10.895Z,16
2016-07-08T11:24:10.894Z,16
2016-07-08T11:25:10.901Z,20
2016-07-08T11:26:10.899Z,16
2016-07-08T11:27:10.898Z,20
2016-07-08T11:28:10.981Z,20
2016-07-08T11:29:11.034Z,16
2016-07-08T11:30:11.114Z,16
2016-07-08T11:31:10.913Z,20
2016-07-08T11:32:10.921Z,20
2016-07-08T11:33:12.097Z,20
2016-07-08T11:34:13.103Z,20
2016-07-08T11:35:10.930Z,20
2016-07-08T11:36:10.934Z,20
2016-07-08T11:37:10.936Z,20
2016-07-08T11:38:10.951Z,16
2016-07-08T11:39:10.941Z,20
2016-07-08T11:40:11.149Z,16
2016-07-08T11:41:11.069Z,16
2016-07-08T11:42:12.385Z,16
2016-07-08T11:43:10.979Z,16
2016-07-08T11:44:11.193Z,16
2016-07-08T11:45:10.960Z,16
2016-07-08T11:46:11.287Z,20
2016-07-08T11:47:11.037Z,16
2016-07-08T11:48:11.238Z,16
2016-07-08T11:49:11.092Z,20
2016-07-08T11:50:10.978Z,16
2016-07-08T11:51:11.287Z,20
2016-07-08T11:52:11.001Z,20
2016-07-08T11:53:10.983Z,16
2016-07-08T11:54:10.996Z,20
2016-07-08T11:55:10.996Z,20
2016-07-08T11:56:11.004Z,20
2016-07-08T11:57:11.006Z,20
2016-07-08T11:58:11.086Z,20
2016-07-08T11:59:10.998Z,16
2016-07-08T12:00:11.261Z,20
2016-07-08T12:01:11.016Z,16
2016-07-08T12:02:11.235Z,20
2016-07-08T12:03:11.212Z,20
2016-07-08T12:04:11.017Z,20
2016-07-08T12:05:11.393Z,20
2016-07-08T12:06:11.027Z,16
2016-07-08T12:07:11.024Z,20
2016-07-08T12:08:11.029Z,20
2016-07-08T12:09:11.028Z,20
2016-07-08T12:10:11.238Z,20
2016-07-08T12:11:11.033Z,20
2016-07-08T12:12:11.041Z,20
2016-07-08T12:13:11.051Z,20
2016-07-08T12:14:11.047Z,16
2016-07-08T12:15:11.057Z,20
2016-07-08T12:16:11.061Z,20
2016-07-08T12:17:11.061Z,16
2016-07-08T12:18:11.057Z,20
2016-07-08T12:19:11.064Z,20
2016-07-08T12:20:11.068Z,20
2016-07-08T12:21:11.113Z,20
2016-07-08T12:22:11.074Z,20
2016-07-08T12:23:11.074Z,20
2016-07-08T12:24:11.079Z,20
2016-07-08T12:25:11.083Z,20
2016-07-08T12:26:11.087Z,20
2016-07-08T12:27:11.287Z,24
2016-07-08T12:28:11.096Z,20
2016-07-08T12:29:11.098Z,24
2016-07-08T12:30:11.098Z,24
2016-07-08T12:31:11.116Z,24
2016-07-08T12:32:11.108Z,24
2016-07-08T12:33:11.108Z,20
2016-07-08T12:34:11.134Z,20
2016-07-08T12:35:12.982Z,24
2016-07-08T12:36:15.089Z,28
2016-07-08T12:37:12.243Z,28
2016-07-08T12:38:11.127Z,28
2016-07-08T12:39:11.128Z,28
2016-07-08T12:40:11.133Z,28
2016-07-08T12:41:11.140Z,28
2016-07-08T12:42:11.142Z,24
2016-07-08T12:43:11.143Z,28
2016-07-08T12:44:11.491Z,28
2016-07-08T12:45:11.362Z,28
2016-07-08T12:46:11.153Z,20
2016-07-08T12:47:11.167Z,20
2016-07-08T12:48:11.566Z,20
2016-07-08T12:49:11.174Z,20
2016-07-08T12:50:11.171Z,20
2016-07-08T12:51:11.263Z,20
2016-07-08T12:52:11.193Z,20
2016-07-08T12:53:11.416Z,20
2016-07-08T12:54:11.388Z,20
2016-07-08T12:55:11.194Z,20
2016-07-08T12:56:11.203Z,20
2016-07-08T12:57:11.192Z,20
2016-07-08T12:58:11.197Z,20
2016-07-08T12:59:11.218Z,24
2016-07-08T13:00:11.318Z,24
2016-07-08T13:01:11.429Z,20
2016-07-08T13:02:11.218Z,24
2016-07-08T13:03:11.210Z,24
2016-07-08T13:04:11.232Z,20
2016-07-08T13:05:11.241Z,24
2016-07-08T13:06:11.234Z,20
2016-07-08T13:07:11.430Z,20
2016-07-08T13:08:11.237Z,20
2016-07-08T13:09:11.233Z,24
2016-07-08T13:10:11.252Z,20
2016-07-08T13:11:11.282Z,24
2016-07-08T13:12:11.248Z,24
2016-07-08T13:13:11.257Z,24
2016-07-08T13:14:11.252Z,20
2016-07-08T13:15:11.472Z,20
2016-07-08T13:16:11.452Z,20
2016-07-08T13:17:11.336Z,20
2016-07-08T13:18:11.274Z,20
2016-07-08T13:19:11.286Z,16
2016-07-08T13:20:11.281Z,20
2016-07-08T13:21:11.335Z,16
2016-07-08T13:22:11.284Z,20
2016-07-08T13:23:11.306Z,20
2016-07-08T13:24:11.494Z,20
2016-07-08T13:25:11.510Z,16
2016-07-08T13:26:11.326Z,16
2016-07-08T13:27:11.345Z,16
2016-07-08T13:28:11.336Z,16
2016-07-08T13:29:11.536Z,16
2016-07-08T13:30:11.337Z,16
2016-07-08T13:31:11.317Z,16
2016-07-08T13:32:11.313Z,16
2016-07-08T13:33:11.321Z,20
2016-07-08T13:34:11.328Z,20
2016-07-08T13:35:11.332Z,20
2016-07-08T13:36:11.334Z,20
2016-07-08T13:37:11.339Z,20
2016-07-08T13:38:11.537Z,20
2016-07-08T13:39:11.426Z,20
2016-07-08T13:40:11.554Z,24
2016-07-08T13:41:11.353Z,20
2016-07-08T13:42:11.353Z,20
2016-07-08T13:43:11.362Z,20
2016-07-08T13:44:11.356Z,20
2016-07-08T13:45:11.845Z,20
2016-07-08T13:46:11.364Z,20
2016-07-08T13:47:11.384Z,20
2016-07-08T13:48:11.374Z,20
2016-07-08T13:49:11.411Z,20
2016-07-08T13:50:11.440Z,20
2016-07-08T13:51:11.451Z,20
2016-07-08T13:52:11.869Z,20
2016-07-08T13:53:11.393Z,20
2016-07-08T13:54:11.395Z,20
2016-07-08T13:55:11.422Z,20
2016-07-08T13:56:11.399Z,16
2016-07-08T13:57:11.573Z,16
2016-07-08T13:58:11.611Z,20
2016-07-08T13:59:11.410Z,16
2016-07-08T14:00:11.415Z,12
2016-07-08T14:01:11.412Z,16
2016-07-08T14:02:11.421Z,16
2016-07-08T14:03:11.420Z,16
2016-07-08T14:05:47.938Z,20
2016-07-08T14:06:47.939Z,16
2016-07-08T14:07:47.946Z,8
2016-07-08T14:08:47.948Z,4
2016-07-08T14:09:47.962Z,4
2016-07-08T14:10:48.154Z,8
2016-07-08T14:11:47.959Z,12
2016-07-08T14:12:47.959Z,4
2016-07-08T14:13:47.963Z,0
2016-07-08T14:14:47.966Z,0
2016-07-08T14:15:47.964Z,0
2016-07-08T14:16:47.972Z,0
2016-07-08T14:17:47.976Z,0
2016-07-08T14:18:48.179Z,0
2016-07-08T14:19:47.983Z,0
2016-07-08T14:20:47.979Z,4
2016-07-08T14:21:47.985Z,0
2016-07-08T14:22:47.992Z,4
2016-07-08T14:23:47.995Z,0
2016-07-08T14:24:47.996Z,0
2016-07-08T14:25:48.002Z,0
2016-07-08T14:26:48.004Z,0
2016-07-08T14:27:48.210Z,0
2016-07-08T14:28:48.003Z,0
2016-07-08T14:29:48.015Z,0
2016-07-08T14:30:48.009Z,0
2016-07-08T14:31:48.015Z,0
2016-07-08T14:32:48.023Z,4
2016-07-08T14:33:48.015Z,0
2016-07-08T14:34:48.033Z,0
2016-07-08T14:35:48.031Z,0
2016-07-08T14:36:48.025Z,0
2016-07-08T14:37:48.051Z,0
2016-07-08T14:38:48.238Z,0
2016-07-08T14:39:48.037Z,0
2016-07-08T14:40:48.246Z,0
2016-07-08T14:41:48.049Z,0
2016-07-08T14:42:48.051Z,0
2016-07-08T14:43:48.051Z,0
2016-07-08T14:44:48.056Z,0
2016-07-08T14:45:48.059Z,0
2016-07-08T14:46:48.059Z,0
2016-07-08T14:47:48.063Z,0
2016-07-08T14:48:48.409Z,0
2016-07-08T14:49:48.069Z,0
2016-07-08T14:50:48.068Z,0
2016-07-08T14:51:48.083Z,0
2016-07-08T14:52:48.073Z,0
2016-07-08T14:53:48.085Z,0
2016-07-08T14:54:48.098Z,0
2016-07-08T14:55:48.093Z,0
2016-07-08T14:56:48.100Z,0
2016-07-08T14:57:48.096Z,0
2016-07-08T14:58:48.530Z,0
2016-07-08T14:59:48.104Z,0
2016-07-08T15:00:48.108Z,0
2016-07-08T15:01:48.113Z,0
2016-07-08T15:02:48.114Z,0
2016-07-08T15:03:48.121Z,0
2016-07-08T15:04:48.121Z,0
2016-07-08T15:05:48.126Z,0
2016-07-08T15:06:48.329Z,0
2016-07-08T15:07:48.130Z,0
2016-07-08T15:08:48.332Z,0
2016-07-08T15:09:48.142Z,0
2016-07-08T15:10:48.166Z,0
2016-07-08T15:11:48.145Z,0
2016-07-08T15:12:48.181Z,0
2016-07-08T15:13:48.352Z,0
2016-07-08T15:14:48.174Z,0
2016-07-08T15:15:48.354Z,0
2016-07-08T15:16:48.178Z,0
2016-07-08T15:17:48.362Z,0
2016-07-08T15:18:48.208Z,0
2016-07-08T15:19:48.178Z,0
2016-07-08T15:20:48.187Z,0
2016-07-08T15:21:48.227Z,0
2016-07-08T15:22:48.205Z,0
2016-07-08T15:23:48.383Z,0
2016-07-08T15:24:48.213Z,0
2016-07-08T15:25:48.190Z,4
2016-07-08T15:26:48.202Z,0
2016-07-08T15:27:48.207Z,4
2016-07-08T15:28:48.218Z,0
2016-07-08T15:29:48.233Z,4
2016-07-08T15:30:48.205Z,0
2016-07-08T15:31:48.431Z,0
2016-07-08T15:32:48.209Z,0
2016-07-08T15:33:48.414Z,0
2016-07-08T15:34:48.215Z,0
2016-07-08T15:35:48.409Z,0
2016-07-08T15:36:48.436Z,0
2016-07-08T15:37:48.218Z,0
2016-07-08T15:38:48.442Z,0
2016-07-08T15:39:48.224Z,0
2016-07-08T15:40:48.222Z,0
2016-07-08T15:41:48.468Z,0
2016-07-08T15:42:48.232Z,0
2016-07-08T15:43:48.439Z,0
2016-07-08T15:44:48.263Z,0
2016-07-08T15:45:48.245Z,0
2016-07-08T15:46:48.460Z,0
2016-07-08T15:47:48.257Z,0
2016-07-08T15:48:48.457Z,0
2016-07-08T15:49:48.258Z,0
2016-07-08T15:50:48.465Z,0
2016-07-08T15:51:48.267Z,0
2016-07-08T15:52:48.476Z,0
2016-07-08T15:53:48.470Z,0
2016-07-08T15:54:48.279Z,0
2016-07-08T15:55:48.272Z,0
2016-07-08T15:56:48.286Z,0
2016-07-08T15:57:48.276Z,0
2016-07-08T15:58:48.479Z,0
2016-07-08T15:59:48.280Z,0
2016-07-08T16:00:48.295Z,0
2016-07-08T16:01:48.290Z,0
2016-07-08T16:02:48.294Z,0
2016-07-08T16:03:48.298Z,0
2016-07-08T16:04:48.293Z,0
2016-07-08T16:05:48.307Z,0
2016-07-08T16:06:48.306Z,0
2016-07-08T16:07:48.516Z,0
2016-07-08T16:08:48.309Z,0
2016-07-08T16:09:48.316Z,0
2016-07-08T16:10:48.312Z,0
2016-07-08T16:11:48.320Z,0
2016-07-08T16:12:48.518Z,0
2016-07-08T16:13:48.525Z,0
2016-07-08T16:14:48.328Z,0
2016-07-08T16:15:48.328Z,0
2016-07-08T16:16:48.341Z,0
2016-07-08T16:17:48.329Z,0
2016-07-08T16:18:48.549Z,0
2016-07-08T16:19:48.342Z,0
2016-07-08T16:20:48.342Z,0
2016-07-08T16:21:48.364Z,0
2016-07-08T16:22:48.352Z,0
2016-07-08T16:23:48.344Z,0
2016-07-08T16:24:48.560Z,0
2016-07-08T16:25:48.358Z,0
2016-07-08T16:26:48.358Z,0
2016-07-08T16:27:48.559Z,0
2016-07-08T16:28:48.368Z,0
2016-07-08T16:29:48.368Z,0
2016-07-08T16:30:48.376Z,0
2016-07-08T16:31:48.385Z,0
2016-07-08T16:32:48.373Z,0
2016-07-08T16:33:48.381Z,0
2016-07-08T16:34:48.379Z,0
2016-07-08T16:35:48.591Z,0
2016-07-08T16:36:48.393Z,0
2016-07-08T16:37:48.417Z,0
2016-07-08T16:38:48.395Z,0
2016-07-08T16:39:48.395Z,0
2016-07-08T16:40:48.404Z,0
2016-07-08T16:41:48.403Z,0
2016-07-08T16:42:48.409Z,0
2016-07-08T16:43:48.411Z,0
2016-07-08T16:44:48.610Z,0
2016-07-08T16:45:48.413Z,0
2016-07-08T16:46:48.417Z,0
2016-07-08T16:47:48.417Z,0
2016-07-08T16:48:48.435Z,0
2016-07-08T16:49:48.426Z,0
2016-07-08T16:50:48.428Z,0
2016-07-08T16:51:48.436Z,0
2016-07-08T16:52:48.435Z,0
2016-07-08T16:53:48.440Z,0
2016-07-08T16:54:48.447Z,0
2016-07-08T16:55:48.444Z,0
2016-07-08T16:56:48.442Z,0
2016-07-08T16:57:48.447Z,0
2016-07-08T16:58:48.450Z,0
2016-07-08T16:59:48.455Z,0
2016-07-08T17:00:48.459Z,0
2016-07-08T17:01:48.460Z,0
2016-07-08T17:02:48.465Z,0
2016-07-08T17:03:48.868Z,0
2016-07-08T17:04:48.472Z,0
2016-07-08T17:05:48.474Z,0
2016-07-08T17:06:48.687Z,0
2016-07-08T17:07:48.488Z,0
2016-07-08T17:08:48.485Z,0
2016-07-08T17:09:48.484Z,0
2016-07-08T17:10:48.494Z,0
2016-07-08T17:11:48.490Z,0
2016-07-08T17:12:48.899Z,0
2016-07-08T17:13:48.499Z,0
2016-07-08T17:14:48.505Z,0
2016-07-08T17:15:48.698Z,0
2016-07-08T17:16:48.513Z,0
2016-07-08T17:17:48.512Z,0
2016-07-08T17:18:48.721Z,0
2016-07-08T17:19:48.518Z,0
2016-07-08T17:20:48.529Z,0
2016-07-08T17:21:48.539Z,0
2016-07-08T17:22:48.527Z,0
2016-07-08T17:23:48.523Z,0
2016-07-08T17:24:48.535Z,0
2016-07-08T17:25:48.533Z,0
2016-07-08T17:26:48.538Z,0
2016-07-08T17:27:48.544Z,0
2016-07-08T17:28:48.555Z,0
2016-07-08T17:29:48.532Z,0
2016-07-08T17:30:48.545Z,0
2016-07-08T17:31:48.554Z,0
2016-07-08T17:32:48.557Z,0
2016-07-08T17:33:48.556Z,0
2016-07-08T17:34:48.556Z,0
2016-07-08T17:35:48.556Z,0
2016-07-08T17:36:48.772Z,0
2016-07-08T17:37:48.570Z,0
2016-07-08T17:38:48.572Z,0
2016-07-08T17:39:48.565Z,0
2016-07-08T17:40:48.585Z,0
2016-07-08T17:41:48.778Z,0
2016-07-08T17:42:48.791Z,0
2016-07-08T17:43:48.778Z,0
2016-07-08T17:44:48.592Z,0
2016-07-08T17:45:48.593Z,0
2016-07-08T17:46:48.603Z,0
2016-07-08T17:47:48.594Z,0
2016-07-08T17:48:48.598Z,0
2016-07-08T17:49:48.796Z,0
2016-07-08T17:50:48.602Z,0
2016-07-08T17:51:48.610Z,0
2016-07-08T17:52:48.605Z,0
2016-07-08T17:53:48.627Z,0
2016-07-08T17:54:48.612Z,0
2016-07-08T17:55:48.624Z,0
2016-07-08T17:56:48.614Z,0
2016-07-08T17:57:48.631Z,0
2016-07-08T17:58:48.624Z,0
2016-07-08T17:59:48.825Z,0
2016-07-08T18:00:48.633Z,0
2016-07-08T18:01:48.629Z,0
2016-07-08T18:02:48.631Z,0
2016-07-08T18:03:48.643Z,0
2016-07-08T18:04:48.638Z,0
2016-07-08T18:05:48.646Z,0
2016-07-08T18:06:48.645Z,0
2016-07-08T18:07:48.645Z,0
2016-07-08T18:08:48.654Z,0
2016-07-08T18:09:48.654Z,0
2016-07-08T18:10:48.653Z,0
2016-07-08T18:11:48.657Z,0
2016-07-08T18:12:48.864Z,0
2016-07-08T18:13:48.672Z,0
2016-07-08T18:14:48.674Z,0
2016-07-08T18:15:48.871Z,0
2016-07-08T18:16:48.686Z,0
2016-07-08T18:17:48.677Z,0
2016-07-08T18:18:49.076Z,0
2016-07-08T18:19:48.700Z,0
2016-07-08T18:20:48.887Z,0
2016-07-08T18:21:48.682Z,0
2016-07-08T18:22:49.089Z,0
2016-07-08T18:23:48.693Z,0
2016-07-08T18:24:48.900Z,0
2016-07-08T18:25:48.901Z,0
2016-07-08T18:26:48.715Z,0
2016-07-08T18:27:48.696Z,0
2016-07-08T18:28:48.701Z,0
2016-07-08T18:29:48.705Z,0
2016-07-08T18:30:48.699Z,0
2016-07-08T18:31:48.717Z,0
2016-07-08T18:32:48.716Z,0
2016-07-08T18:33:48.714Z,0
2016-07-08T18:34:48.718Z,0
2016-07-08T18:35:48.719Z,0
2016-07-08T18:36:48.734Z,0
2016-07-08T18:37:48.929Z,0
2016-07-08T18:38:48.731Z,0
2016-07-08T18:39:48.732Z,0
2016-07-08T18:40:48.737Z,0
2016-07-08T18:41:48.741Z,0
2016-07-08T18:42:48.737Z,0
2016-07-08T18:43:48.743Z,0
2016-07-08T18:44:48.734Z,0
2016-07-08T18:45:48.753Z,0
2016-07-08T18:46:48.753Z,0
2016-07-08T18:47:48.751Z,0
2016-07-08T18:48:48.959Z,0
2016-07-08T18:49:48.762Z,0
2016-07-08T18:50:48.760Z,0
2016-07-08T18:51:48.764Z,0
2016-07-08T18:52:48.771Z,0
2016-07-08T18:53:49.172Z,0
2016-07-08T18:54:48.782Z,0
2016-07-08T18:55:48.779Z,0
2016-07-08T18:56:48.781Z,0
2016-07-08T18:57:48.796Z,0
2016-07-08T18:58:48.981Z,0
2016-07-08T18:59:48.789Z,0
2016-07-08T19:00:48.793Z,0
2016-07-08T19:01:48.788Z,0
2016-07-08T19:02:48.795Z,0
2016-07-08T19:03:48.801Z,0
2016-07-08T19:04:48.990Z,0
2016-07-08T19:05:48.808Z,0
2016-07-08T19:06:49.013Z,0
2016-07-08T19:07:48.801Z,0
2016-07-08T19:08:48.814Z,0
2016-07-08T19:09:48.809Z,0
2016-07-08T19:10:48.818Z,0
2016-07-08T19:11:48.815Z,0
2016-07-08T19:12:48.820Z,0
2016-07-08T19:13:48.826Z,0
2016-07-08T19:14:48.850Z,0
2016-07-08T19:15:48.848Z,0
2016-07-08T19:16:48.850Z,0
2016-07-08T19:17:49.030Z,0
2016-07-08T19:18:49.049Z,0
2016-07-08T19:19:48.849Z,0
2016-07-08T19:20:48.834Z,0
2016-07-08T19:21:49.094Z,0
2016-07-08T19:22:48.850Z,0
2016-07-08T19:23:48.867Z,0
2016-07-08T19:24:48.861Z,0
2016-07-08T19:25:48.867Z,0
2016-07-08T19:26:48.867Z,0
2016-07-08T19:27:48.867Z,0
2016-07-08T19:28:48.881Z,0
2016-07-08T19:29:48.865Z,0
2016-07-08T19:30:48.877Z,0
2016-07-08T19:31:48.876Z,0
2016-07-08T19:32:48.875Z,0
2016-07-08T19:33:48.880Z,0
2016-07-08T19:34:48.881Z,0
2016-07-08T19:35:48.894Z,0
2016-07-08T19:36:48.895Z,0
2016-07-08T19:37:48.898Z,0
2016-07-08T19:38:48.908Z,0
2016-07-08T19:39:49.094Z,0
2016-07-08T19:40:48.908Z,0
2016-07-08T19:41:48.916Z,0
2016-07-08T19:42:48.896Z,0
2016-07-08T19:43:48.900Z,0
2016-07-08T19:44:48.900Z,0
2016-07-08T19:45:48.943Z,0
2016-07-08T19:46:48.912Z,0
2016-07-08T19:47:49.326Z,0
2016-07-08T19:48:48.919Z,0
2016-07-08T19:49:48.928Z,0
2016-07-08T19:50:48.933Z,0
2016-07-08T19:51:48.926Z,0
2016-07-08T19:52:48.933Z,0
2016-07-08T19:53:48.932Z,0
2016-07-08T19:54:49.128Z,0
2016-07-08T19:55:48.946Z,0
2016-07-08T19:56:48.956Z,0
2016-07-08T19:57:48.939Z,0
2016-07-08T19:58:49.147Z,0
2016-07-08T19:59:49.149Z,0
2016-07-08T20:00:48.941Z,0
2016-07-08T20:01:48.954Z,0
2016-07-08T20:02:48.951Z,0
2016-07-08T20:03:49.173Z,0
2016-07-08T20:04:49.194Z,0
2016-07-08T20:05:48.995Z,0
2016-07-08T20:06:48.952Z,0
2016-07-08T20:07:48.956Z,0
2016-07-08T20:08:48.981Z,0
2016-07-08T20:09:48.969Z,0
2016-07-08T20:10:48.992Z,0
2016-07-08T20:11:48.976Z,0
2016-07-08T20:12:48.965Z,0
2016-07-08T20:13:49.174Z,0
2016-07-08T20:14:48.980Z,0
2016-07-08T20:15:48.972Z,0
2016-07-08T20:16:48.986Z,0
2016-07-08T20:17:48.979Z,0
2016-07-08T20:18:49.381Z,0
2016-07-08T20:19:48.985Z,0
2016-07-08T20:20:48.992Z,0
2016-07-08T20:21:49.192Z,0
2016-07-08T20:22:48.999Z,0
2016-07-08T20:23:48.990Z,0
2016-07-08T20:24:48.993Z,0
2016-07-08T20:25:48.992Z,0
2016-07-08T20:26:48.993Z,0
2016-07-08T20:27:49.005Z,0
2016-07-08T20:28:49.201Z,0
2016-07-08T20:29:49.006Z,0
2016-07-08T20:30:49.016Z,0
2016-07-08T20:31:49.010Z,0
2016-07-08T20:32:49.211Z,0
2016-07-08T20:33:49.016Z,0
2016-07-08T20:34:49.018Z,0
2016-07-08T20:35:49.215Z,0